<?xml version="1.0" encoding="UTF-8" standalone="no" ?>
<gpx xmlns="http://www.topografix.com/GPX/1/1" xmlns:xsi="http://www.w3.org/2001/XMLSchema-instance" xsi:schemaLocation="http://www.topografix.com/GPX/1/1 http://www.topografix.com/GPX/1/1/gpx.xsd" version="1.1" creator="VisuGPX - https://www.visugpx.com">
  <metadata>
    <name>Circuit Fleurancellerie - La Regrippiere</name>
    <desc><![CDATA[Circuit de la Felurancellerie à la Regrippière ( proche de Vallet 44330 )]]></desc>
  </metadata>
  <trk>
    <name><![CDATA[2014-08-17 11:10:35]]></name>
    <desc><![CDATA[Fleurancellerie]]></desc>
    <trkseg>
      <trkpt lat="47.18299" lon="-1.18112">
        <ele>109.8</ele>
        <time>2014-08-17T09:10:42Z</time>
      </trkpt>
      <trkpt lat="47.18304" lon="-1.18133">
        <ele>117.44</ele>
        <time>2014-08-17T09:10:52Z</time>
      </trkpt>
      <trkpt lat="47.18312" lon="-1.1815">
        <ele>123.37</ele>
        <time>2014-08-17T09:11:03Z</time>
      </trkpt>
      <trkpt lat="47.18318" lon="-1.18167">
        <ele>124.35</ele>
        <time>2014-08-17T09:11:13Z</time>
      </trkpt>
      <trkpt lat="47.18326" lon="-1.18179">
        <ele>126.48</ele>
        <time>2014-08-17T09:11:23Z</time>
      </trkpt>
      <trkpt lat="47.18334" lon="-1.1819">
        <ele>127.24</ele>
        <time>2014-08-17T09:11:33Z</time>
      </trkpt>
      <trkpt lat="47.18342" lon="-1.18203">
        <ele>127.48</ele>
        <time>2014-08-17T09:11:43Z</time>
      </trkpt>
      <trkpt lat="47.18352" lon="-1.18203">
        <ele>126.38</ele>
        <time>2014-08-17T09:11:53Z</time>
      </trkpt>
      <trkpt lat="47.18363" lon="-1.18197">
        <ele>125.63</ele>
        <time>2014-08-17T09:12:03Z</time>
      </trkpt>
      <trkpt lat="47.18373" lon="-1.18189">
        <ele>126.24</ele>
        <time>2014-08-17T09:12:13Z</time>
      </trkpt>
      <trkpt lat="47.18384" lon="-1.18181">
        <ele>127.85</ele>
        <time>2014-08-17T09:12:23Z</time>
      </trkpt>
      <trkpt lat="47.18395" lon="-1.18174">
        <ele>126.88</ele>
        <time>2014-08-17T09:12:33Z</time>
      </trkpt>
      <trkpt lat="47.18406" lon="-1.18167">
        <ele>126.32</ele>
        <time>2014-08-17T09:12:43Z</time>
      </trkpt>
      <trkpt lat="47.18417" lon="-1.1816">
        <ele>125.49</ele>
        <time>2014-08-17T09:12:53Z</time>
      </trkpt>
      <trkpt lat="47.18428" lon="-1.18152">
        <ele>125.97</ele>
        <time>2014-08-17T09:13:03Z</time>
      </trkpt>
      <trkpt lat="47.1844" lon="-1.18144">
        <ele>125.39</ele>
        <time>2014-08-17T09:13:13Z</time>
      </trkpt>
      <trkpt lat="47.18451" lon="-1.18134">
        <ele>125.3</ele>
        <time>2014-08-17T09:13:23Z</time>
      </trkpt>
      <trkpt lat="47.18462" lon="-1.18125">
        <ele>124.49</ele>
        <time>2014-08-17T09:13:33Z</time>
      </trkpt>
      <trkpt lat="47.18474" lon="-1.18118">
        <ele>126.13</ele>
        <time>2014-08-17T09:13:43Z</time>
      </trkpt>
      <trkpt lat="47.18487" lon="-1.18117">
        <ele>127.61</ele>
        <time>2014-08-17T09:13:53Z</time>
      </trkpt>
      <trkpt lat="47.185" lon="-1.18118">
        <ele>127.49</ele>
        <time>2014-08-17T09:14:03Z</time>
      </trkpt>
      <trkpt lat="47.18514" lon="-1.18119">
        <ele>127.85</ele>
        <time>2014-08-17T09:14:13Z</time>
      </trkpt>
      <trkpt lat="47.18527" lon="-1.18119">
        <ele>128.44</ele>
        <time>2014-08-17T09:14:23Z</time>
      </trkpt>
      <trkpt lat="47.18537" lon="-1.18106">
        <ele>127.1</ele>
        <time>2014-08-17T09:14:33Z</time>
      </trkpt>
      <trkpt lat="47.18537" lon="-1.18086">
        <ele>125.21</ele>
        <time>2014-08-17T09:14:43Z</time>
      </trkpt>
      <trkpt lat="47.18538" lon="-1.18065">
        <ele>124.55</ele>
        <time>2014-08-17T09:14:53Z</time>
      </trkpt>
      <trkpt lat="47.18538" lon="-1.18045">
        <ele>126.59</ele>
        <time>2014-08-17T09:15:03Z</time>
      </trkpt>
      <trkpt lat="47.18537" lon="-1.18045">
        <ele>125.13</ele>
        <time>2014-08-17T09:15:13Z</time>
      </trkpt>
      <trkpt lat="47.18538" lon="-1.18044">
        <ele>125.37</ele>
        <time>2014-08-17T09:15:27Z</time>
      </trkpt>
      <trkpt lat="47.1854" lon="-1.18042">
        <ele>126.3</ele>
        <time>2014-08-17T09:15:37Z</time>
      </trkpt>
      <trkpt lat="47.1854" lon="-1.18041">
        <ele>127.28</ele>
        <time>2014-08-17T09:15:50Z</time>
      </trkpt>
      <trkpt lat="47.1854" lon="-1.1804">
        <ele>129.49</ele>
        <time>2014-08-17T09:16:28Z</time>
      </trkpt>
      <trkpt lat="47.1854" lon="-1.18038">
        <ele>128.51</ele>
        <time>2014-08-17T09:16:39Z</time>
      </trkpt>
      <trkpt lat="47.18541" lon="-1.18038">
        <ele>129.9</ele>
        <time>2014-08-17T09:17:01Z</time>
      </trkpt>
      <trkpt lat="47.18541" lon="-1.18037">
        <ele>130.83</ele>
        <time>2014-08-17T09:17:15Z</time>
      </trkpt>
      <trkpt lat="47.18539" lon="-1.18018">
        <ele>129.94</ele>
        <time>2014-08-17T09:17:25Z</time>
      </trkpt>
      <trkpt lat="47.1854" lon="-1.17997">
        <ele>128.35</ele>
        <time>2014-08-17T09:17:35Z</time>
      </trkpt>
      <trkpt lat="47.18539" lon="-1.17978">
        <ele>128.37</ele>
        <time>2014-08-17T09:17:45Z</time>
      </trkpt>
      <trkpt lat="47.18541" lon="-1.17961">
        <ele>124.4</ele>
        <time>2014-08-17T09:17:55Z</time>
      </trkpt>
      <trkpt lat="47.18543" lon="-1.17948">
        <ele>123.17</ele>
        <time>2014-08-17T09:18:05Z</time>
      </trkpt>
      <trkpt lat="47.18549" lon="-1.1793">
        <ele>121.97</ele>
        <time>2014-08-17T09:18:15Z</time>
      </trkpt>
      <trkpt lat="47.18551" lon="-1.17907">
        <ele>122.31</ele>
        <time>2014-08-17T09:18:25Z</time>
      </trkpt>
      <trkpt lat="47.18548" lon="-1.1789">
        <ele>121.51</ele>
        <time>2014-08-17T09:18:35Z</time>
      </trkpt>
      <trkpt lat="47.18547" lon="-1.1787">
        <ele>119.93</ele>
        <time>2014-08-17T09:18:45Z</time>
      </trkpt>
      <trkpt lat="47.18559" lon="-1.17859">
        <ele>119.81</ele>
        <time>2014-08-17T09:18:55Z</time>
      </trkpt>
      <trkpt lat="47.18561" lon="-1.17844">
        <ele>121.57</ele>
        <time>2014-08-17T09:19:05Z</time>
      </trkpt>
      <trkpt lat="47.18555" lon="-1.17839">
        <ele>121.44</ele>
        <time>2014-08-17T09:19:15Z</time>
      </trkpt>
      <trkpt lat="47.18541" lon="-1.1783">
        <ele>121.11</ele>
        <time>2014-08-17T09:19:25Z</time>
      </trkpt>
      <trkpt lat="47.18529" lon="-1.17821">
        <ele>125.52</ele>
        <time>2014-08-17T09:19:35Z</time>
      </trkpt>
      <trkpt lat="47.18519" lon="-1.17815">
        <ele>124.6</ele>
        <time>2014-08-17T09:19:45Z</time>
      </trkpt>
      <trkpt lat="47.1851" lon="-1.1781">
        <ele>122.7</ele>
        <time>2014-08-17T09:19:55Z</time>
      </trkpt>
      <trkpt lat="47.185" lon="-1.17801">
        <ele>121.47</ele>
        <time>2014-08-17T09:20:05Z</time>
      </trkpt>
      <trkpt lat="47.18488" lon="-1.17791">
        <ele>124.75</ele>
        <time>2014-08-17T09:20:15Z</time>
      </trkpt>
      <trkpt lat="47.18484" lon="-1.17778">
        <ele>126.94</ele>
        <time>2014-08-17T09:20:25Z</time>
      </trkpt>
      <trkpt lat="47.18476" lon="-1.17762">
        <ele>127.18</ele>
        <time>2014-08-17T09:20:35Z</time>
      </trkpt>
      <trkpt lat="47.18465" lon="-1.17748">
        <ele>128.34</ele>
        <time>2014-08-17T09:20:45Z</time>
      </trkpt>
      <trkpt lat="47.18454" lon="-1.17734">
        <ele>131.09</ele>
        <time>2014-08-17T09:20:55Z</time>
      </trkpt>
      <trkpt lat="47.18442" lon="-1.1772">
        <ele>131.79</ele>
        <time>2014-08-17T09:21:05Z</time>
      </trkpt>
      <trkpt lat="47.18431" lon="-1.17707">
        <ele>131.88</ele>
        <time>2014-08-17T09:21:15Z</time>
      </trkpt>
      <trkpt lat="47.18422" lon="-1.17695">
        <ele>132.35</ele>
        <time>2014-08-17T09:21:25Z</time>
      </trkpt>
      <trkpt lat="47.18412" lon="-1.17682">
        <ele>133.36</ele>
        <time>2014-08-17T09:21:35Z</time>
      </trkpt>
      <trkpt lat="47.18403" lon="-1.1767">
        <ele>133.7</ele>
        <time>2014-08-17T09:21:45Z</time>
      </trkpt>
      <trkpt lat="47.18393" lon="-1.17657">
        <ele>134.31</ele>
        <time>2014-08-17T09:21:55Z</time>
      </trkpt>
      <trkpt lat="47.18384" lon="-1.17644">
        <ele>133.85</ele>
        <time>2014-08-17T09:22:05Z</time>
      </trkpt>
      <trkpt lat="47.18375" lon="-1.1763">
        <ele>132.85</ele>
        <time>2014-08-17T09:22:15Z</time>
      </trkpt>
      <trkpt lat="47.18367" lon="-1.17615">
        <ele>133.51</ele>
        <time>2014-08-17T09:22:25Z</time>
      </trkpt>
      <trkpt lat="47.18374" lon="-1.17603">
        <ele>134.31</ele>
        <time>2014-08-17T09:22:35Z</time>
      </trkpt>
      <trkpt lat="47.18384" lon="-1.17594">
        <ele>134.18</ele>
        <time>2014-08-17T09:22:45Z</time>
      </trkpt>
      <trkpt lat="47.18395" lon="-1.17584">
        <ele>135.82</ele>
        <time>2014-08-17T09:22:55Z</time>
      </trkpt>
      <trkpt lat="47.18407" lon="-1.17573">
        <ele>136.4</ele>
        <time>2014-08-17T09:23:05Z</time>
      </trkpt>
      <trkpt lat="47.18418" lon="-1.17562">
        <ele>137.48</ele>
        <time>2014-08-17T09:23:15Z</time>
      </trkpt>
      <trkpt lat="47.1843" lon="-1.17552">
        <ele>138.72</ele>
        <time>2014-08-17T09:23:25Z</time>
      </trkpt>
      <trkpt lat="47.18441" lon="-1.17541">
        <ele>138.87</ele>
        <time>2014-08-17T09:23:35Z</time>
      </trkpt>
      <trkpt lat="47.18452" lon="-1.17529">
        <ele>138.53</ele>
        <time>2014-08-17T09:23:45Z</time>
      </trkpt>
      <trkpt lat="47.18462" lon="-1.17518">
        <ele>137.62</ele>
        <time>2014-08-17T09:23:55Z</time>
      </trkpt>
      <trkpt lat="47.18473" lon="-1.17505">
        <ele>138.15</ele>
        <time>2014-08-17T09:24:05Z</time>
      </trkpt>
      <trkpt lat="47.18466" lon="-1.17487">
        <ele>136.39</ele>
        <time>2014-08-17T09:24:15Z</time>
      </trkpt>
      <trkpt lat="47.18456" lon="-1.17471">
        <ele>135.89</ele>
        <time>2014-08-17T09:24:25Z</time>
      </trkpt>
      <trkpt lat="47.18447" lon="-1.17455">
        <ele>134.81</ele>
        <time>2014-08-17T09:24:35Z</time>
      </trkpt>
      <trkpt lat="47.18439" lon="-1.17439">
        <ele>133.77</ele>
        <time>2014-08-17T09:24:45Z</time>
      </trkpt>
      <trkpt lat="47.18428" lon="-1.17423">
        <ele>132.11</ele>
        <time>2014-08-17T09:24:55Z</time>
      </trkpt>
      <trkpt lat="47.18419" lon="-1.17405">
        <ele>130.73</ele>
        <time>2014-08-17T09:25:05Z</time>
      </trkpt>
      <trkpt lat="47.18411" lon="-1.1739">
        <ele>129.51</ele>
        <time>2014-08-17T09:25:15Z</time>
      </trkpt>
      <trkpt lat="47.18401" lon="-1.17375">
        <ele>128.65</ele>
        <time>2014-08-17T09:25:25Z</time>
      </trkpt>
      <trkpt lat="47.18393" lon="-1.17358">
        <ele>127.41</ele>
        <time>2014-08-17T09:25:35Z</time>
      </trkpt>
      <trkpt lat="47.18384" lon="-1.17339">
        <ele>128.68</ele>
        <time>2014-08-17T09:25:45Z</time>
      </trkpt>
      <trkpt lat="47.18378" lon="-1.17319">
        <ele>128.63</ele>
        <time>2014-08-17T09:25:55Z</time>
      </trkpt>
      <trkpt lat="47.18375" lon="-1.173">
        <ele>127.73</ele>
        <time>2014-08-17T09:26:05Z</time>
      </trkpt>
      <trkpt lat="47.18385" lon="-1.17287">
        <ele>127.74</ele>
        <time>2014-08-17T09:26:15Z</time>
      </trkpt>
      <trkpt lat="47.18386" lon="-1.17273">
        <ele>127.42</ele>
        <time>2014-08-17T09:26:25Z</time>
      </trkpt>
      <trkpt lat="47.18376" lon="-1.17284">
        <ele>127.55</ele>
        <time>2014-08-17T09:26:35Z</time>
      </trkpt>
      <trkpt lat="47.18368" lon="-1.17295">
        <ele>129.86</ele>
        <time>2014-08-17T09:26:45Z</time>
      </trkpt>
      <trkpt lat="47.18368" lon="-1.17284">
        <ele>127</ele>
        <time>2014-08-17T09:26:55Z</time>
      </trkpt>
      <trkpt lat="47.18383" lon="-1.17273">
        <ele>128.96</ele>
        <time>2014-08-17T09:27:05Z</time>
      </trkpt>
      <trkpt lat="47.1839" lon="-1.17262">
        <ele>128.19</ele>
        <time>2014-08-17T09:27:15Z</time>
      </trkpt>
      <trkpt lat="47.18397" lon="-1.17252">
        <ele>129.23</ele>
        <time>2014-08-17T09:27:25Z</time>
      </trkpt>
      <trkpt lat="47.18407" lon="-1.17243">
        <ele>129.38</ele>
        <time>2014-08-17T09:27:35Z</time>
      </trkpt>
      <trkpt lat="47.18416" lon="-1.17232">
        <ele>132.49</ele>
        <time>2014-08-17T09:27:45Z</time>
      </trkpt>
      <trkpt lat="47.18425" lon="-1.1722">
        <ele>131.4</ele>
        <time>2014-08-17T09:27:55Z</time>
      </trkpt>
      <trkpt lat="47.18434" lon="-1.17207">
        <ele>131.11</ele>
        <time>2014-08-17T09:28:05Z</time>
      </trkpt>
      <trkpt lat="47.18444" lon="-1.17196">
        <ele>131.4</ele>
        <time>2014-08-17T09:28:15Z</time>
      </trkpt>
      <trkpt lat="47.18449" lon="-1.17182">
        <ele>133.96</ele>
        <time>2014-08-17T09:28:25Z</time>
      </trkpt>
      <trkpt lat="47.18438" lon="-1.17172">
        <ele>135.05</ele>
        <time>2014-08-17T09:28:35Z</time>
      </trkpt>
      <trkpt lat="47.18426" lon="-1.17162">
        <ele>136.12</ele>
        <time>2014-08-17T09:28:45Z</time>
      </trkpt>
      <trkpt lat="47.18414" lon="-1.17151">
        <ele>136.28</ele>
        <time>2014-08-17T09:28:55Z</time>
      </trkpt>
      <trkpt lat="47.18403" lon="-1.17141">
        <ele>136.17</ele>
        <time>2014-08-17T09:29:05Z</time>
      </trkpt>
      <trkpt lat="47.18392" lon="-1.17133">
        <ele>136.52</ele>
        <time>2014-08-17T09:29:15Z</time>
      </trkpt>
      <trkpt lat="47.1838" lon="-1.17123">
        <ele>136.87</ele>
        <time>2014-08-17T09:29:25Z</time>
      </trkpt>
      <trkpt lat="47.18369" lon="-1.17112">
        <ele>137.82</ele>
        <time>2014-08-17T09:29:35Z</time>
      </trkpt>
      <trkpt lat="47.18356" lon="-1.17104">
        <ele>138.45</ele>
        <time>2014-08-17T09:29:45Z</time>
      </trkpt>
      <trkpt lat="47.18346" lon="-1.1711">
        <ele>139.24</ele>
        <time>2014-08-17T09:29:55Z</time>
      </trkpt>
      <trkpt lat="47.18341" lon="-1.17129">
        <ele>139.12</ele>
        <time>2014-08-17T09:30:05Z</time>
      </trkpt>
      <trkpt lat="47.18335" lon="-1.17146">
        <ele>138.67</ele>
        <time>2014-08-17T09:30:15Z</time>
      </trkpt>
      <trkpt lat="47.18324" lon="-1.17144">
        <ele>138.54</ele>
        <time>2014-08-17T09:30:25Z</time>
      </trkpt>
      <trkpt lat="47.18314" lon="-1.1713">
        <ele>140.12</ele>
        <time>2014-08-17T09:30:35Z</time>
      </trkpt>
      <trkpt lat="47.18302" lon="-1.17119">
        <ele>140.53</ele>
        <time>2014-08-17T09:30:45Z</time>
      </trkpt>
      <trkpt lat="47.18291" lon="-1.1711">
        <ele>139.77</ele>
        <time>2014-08-17T09:30:55Z</time>
      </trkpt>
      <trkpt lat="47.1828" lon="-1.17123">
        <ele>138.77</ele>
        <time>2014-08-17T09:31:05Z</time>
      </trkpt>
      <trkpt lat="47.18274" lon="-1.17143">
        <ele>139.4</ele>
        <time>2014-08-17T09:31:15Z</time>
      </trkpt>
      <trkpt lat="47.18268" lon="-1.17163">
        <ele>138.89</ele>
        <time>2014-08-17T09:31:25Z</time>
      </trkpt>
      <trkpt lat="47.18261" lon="-1.17183">
        <ele>137.25</ele>
        <time>2014-08-17T09:31:35Z</time>
      </trkpt>
      <trkpt lat="47.18254" lon="-1.172">
        <ele>137.53</ele>
        <time>2014-08-17T09:31:45Z</time>
      </trkpt>
      <trkpt lat="47.18246" lon="-1.17195">
        <ele>137.89</ele>
        <time>2014-08-17T09:31:55Z</time>
      </trkpt>
      <trkpt lat="47.18233" lon="-1.17187">
        <ele>137.13</ele>
        <time>2014-08-17T09:32:05Z</time>
      </trkpt>
      <trkpt lat="47.1822" lon="-1.17179">
        <ele>137.05</ele>
        <time>2014-08-17T09:32:15Z</time>
      </trkpt>
      <trkpt lat="47.18206" lon="-1.1717">
        <ele>135.76</ele>
        <time>2014-08-17T09:32:25Z</time>
      </trkpt>
      <trkpt lat="47.18194" lon="-1.17162">
        <ele>135.64</ele>
        <time>2014-08-17T09:32:35Z</time>
      </trkpt>
      <trkpt lat="47.18182" lon="-1.17152">
        <ele>136.4</ele>
        <time>2014-08-17T09:32:45Z</time>
      </trkpt>
      <trkpt lat="47.18173" lon="-1.17142">
        <ele>135.05</ele>
        <time>2014-08-17T09:32:55Z</time>
      </trkpt>
      <trkpt lat="47.18178" lon="-1.17127">
        <ele>134.26</ele>
        <time>2014-08-17T09:33:05Z</time>
      </trkpt>
      <trkpt lat="47.18183" lon="-1.17108">
        <ele>134.7</ele>
        <time>2014-08-17T09:33:15Z</time>
      </trkpt>
      <trkpt lat="47.18189" lon="-1.17088">
        <ele>134.97</ele>
        <time>2014-08-17T09:33:25Z</time>
      </trkpt>
      <trkpt lat="47.18189" lon="-1.17069">
        <ele>133.51</ele>
        <time>2014-08-17T09:33:35Z</time>
      </trkpt>
      <trkpt lat="47.18177" lon="-1.17062">
        <ele>131.92</ele>
        <time>2014-08-17T09:33:45Z</time>
      </trkpt>
      <trkpt lat="47.18179" lon="-1.17046">
        <ele>133.04</ele>
        <time>2014-08-17T09:33:55Z</time>
      </trkpt>
      <trkpt lat="47.18178" lon="-1.17029">
        <ele>132.51</ele>
        <time>2014-08-17T09:34:05Z</time>
      </trkpt>
      <trkpt lat="47.18166" lon="-1.17022">
        <ele>130.14</ele>
        <time>2014-08-17T09:34:15Z</time>
      </trkpt>
      <trkpt lat="47.18154" lon="-1.17012">
        <ele>128.31</ele>
        <time>2014-08-17T09:34:25Z</time>
      </trkpt>
      <trkpt lat="47.18144" lon="-1.17">
        <ele>126.74</ele>
        <time>2014-08-17T09:34:35Z</time>
      </trkpt>
      <trkpt lat="47.18135" lon="-1.16989">
        <ele>124.49</ele>
        <time>2014-08-17T09:34:45Z</time>
      </trkpt>
      <trkpt lat="47.18128" lon="-1.16983">
        <ele>123.03</ele>
        <time>2014-08-17T09:34:55Z</time>
      </trkpt>
      <trkpt lat="47.18121" lon="-1.16979">
        <ele>123.04</ele>
        <time>2014-08-17T09:35:05Z</time>
      </trkpt>
      <trkpt lat="47.18112" lon="-1.16982">
        <ele>121.74</ele>
        <time>2014-08-17T09:35:15Z</time>
      </trkpt>
      <trkpt lat="47.18103" lon="-1.16989">
        <ele>121.8</ele>
        <time>2014-08-17T09:35:25Z</time>
      </trkpt>
      <trkpt lat="47.18094" lon="-1.16993">
        <ele>119.9</ele>
        <time>2014-08-17T09:35:35Z</time>
      </trkpt>
      <trkpt lat="47.18086" lon="-1.16988">
        <ele>117.75</ele>
        <time>2014-08-17T09:35:45Z</time>
      </trkpt>
      <trkpt lat="47.18083" lon="-1.16988">
        <ele>116.27</ele>
        <time>2014-08-17T09:35:55Z</time>
      </trkpt>
      <trkpt lat="47.18081" lon="-1.16986">
        <ele>112.72</ele>
        <time>2014-08-17T09:36:05Z</time>
      </trkpt>
      <trkpt lat="47.18076" lon="-1.16979">
        <ele>110.23</ele>
        <time>2014-08-17T09:36:15Z</time>
      </trkpt>
      <trkpt lat="47.18068" lon="-1.16974">
        <ele>110.26</ele>
        <time>2014-08-17T09:36:25Z</time>
      </trkpt>
      <trkpt lat="47.18059" lon="-1.16976">
        <ele>110.13</ele>
        <time>2014-08-17T09:36:35Z</time>
      </trkpt>
      <trkpt lat="47.18053" lon="-1.16991">
        <ele>109.9</ele>
        <time>2014-08-17T09:36:45Z</time>
      </trkpt>
      <trkpt lat="47.18047" lon="-1.17005">
        <ele>109.88</ele>
        <time>2014-08-17T09:36:55Z</time>
      </trkpt>
      <trkpt lat="47.18039" lon="-1.17017">
        <ele>111.41</ele>
        <time>2014-08-17T09:37:05Z</time>
      </trkpt>
      <trkpt lat="47.1803" lon="-1.17006">
        <ele>111.22</ele>
        <time>2014-08-17T09:37:15Z</time>
      </trkpt>
      <trkpt lat="47.18031" lon="-1.1699">
        <ele>111.15</ele>
        <time>2014-08-17T09:37:25Z</time>
      </trkpt>
      <trkpt lat="47.18032" lon="-1.16972">
        <ele>109.37</ele>
        <time>2014-08-17T09:37:35Z</time>
      </trkpt>
      <trkpt lat="47.18034" lon="-1.16956">
        <ele>110.08</ele>
        <time>2014-08-17T09:37:45Z</time>
      </trkpt>
      <trkpt lat="47.18046" lon="-1.16938">
        <ele>113.44</ele>
        <time>2014-08-17T09:37:55Z</time>
      </trkpt>
      <trkpt lat="47.18047" lon="-1.16919">
        <ele>115.14</ele>
        <time>2014-08-17T09:38:05Z</time>
      </trkpt>
      <trkpt lat="47.18048" lon="-1.16903">
        <ele>116.55</ele>
        <time>2014-08-17T09:38:15Z</time>
      </trkpt>
      <trkpt lat="47.18048" lon="-1.16885">
        <ele>113.24</ele>
        <time>2014-08-17T09:38:25Z</time>
      </trkpt>
      <trkpt lat="47.18052" lon="-1.16868">
        <ele>115.15</ele>
        <time>2014-08-17T09:38:35Z</time>
      </trkpt>
      <trkpt lat="47.18054" lon="-1.16865">
        <ele>114.28</ele>
        <time>2014-08-17T09:38:45Z</time>
      </trkpt>
      <trkpt lat="47.18056" lon="-1.16848">
        <ele>113.67</ele>
        <time>2014-08-17T09:38:55Z</time>
      </trkpt>
      <trkpt lat="47.18056" lon="-1.16833">
        <ele>114.9</ele>
        <time>2014-08-17T09:39:05Z</time>
      </trkpt>
      <trkpt lat="47.18056" lon="-1.16818">
        <ele>113.08</ele>
        <time>2014-08-17T09:39:15Z</time>
      </trkpt>
      <trkpt lat="47.18057" lon="-1.16803">
        <ele>115.35</ele>
        <time>2014-08-17T09:39:25Z</time>
      </trkpt>
      <trkpt lat="47.18056" lon="-1.16787">
        <ele>114.87</ele>
        <time>2014-08-17T09:39:35Z</time>
      </trkpt>
      <trkpt lat="47.18057" lon="-1.1677">
        <ele>112.7</ele>
        <time>2014-08-17T09:39:45Z</time>
      </trkpt>
      <trkpt lat="47.1806" lon="-1.16751">
        <ele>114.58</ele>
        <time>2014-08-17T09:39:55Z</time>
      </trkpt>
      <trkpt lat="47.18061" lon="-1.16733">
        <ele>116.02</ele>
        <time>2014-08-17T09:40:05Z</time>
      </trkpt>
      <trkpt lat="47.18063" lon="-1.16718">
        <ele>114.9</ele>
        <time>2014-08-17T09:40:15Z</time>
      </trkpt>
      <trkpt lat="47.18068" lon="-1.16703">
        <ele>115.64</ele>
        <time>2014-08-17T09:40:25Z</time>
      </trkpt>
      <trkpt lat="47.18076" lon="-1.16687">
        <ele>120.02</ele>
        <time>2014-08-17T09:40:35Z</time>
      </trkpt>
      <trkpt lat="47.1808" lon="-1.16669">
        <ele>119.75</ele>
        <time>2014-08-17T09:40:45Z</time>
      </trkpt>
      <trkpt lat="47.18086" lon="-1.16654">
        <ele>117.46</ele>
        <time>2014-08-17T09:40:55Z</time>
      </trkpt>
      <trkpt lat="47.18089" lon="-1.16637">
        <ele>116.38</ele>
        <time>2014-08-17T09:41:05Z</time>
      </trkpt>
      <trkpt lat="47.18095" lon="-1.16622">
        <ele>115.54</ele>
        <time>2014-08-17T09:41:15Z</time>
      </trkpt>
      <trkpt lat="47.18104" lon="-1.16607">
        <ele>113.65</ele>
        <time>2014-08-17T09:41:25Z</time>
      </trkpt>
      <trkpt lat="47.1812" lon="-1.16591">
        <ele>113.3</ele>
        <time>2014-08-17T09:41:35Z</time>
      </trkpt>
      <trkpt lat="47.18133" lon="-1.16573">
        <ele>113.24</ele>
        <time>2014-08-17T09:41:45Z</time>
      </trkpt>
      <trkpt lat="47.18143" lon="-1.16558">
        <ele>113.88</ele>
        <time>2014-08-17T09:41:55Z</time>
      </trkpt>
      <trkpt lat="47.18153" lon="-1.16544">
        <ele>115.53</ele>
        <time>2014-08-17T09:42:05Z</time>
      </trkpt>
      <trkpt lat="47.18155" lon="-1.16524">
        <ele>112.2</ele>
        <time>2014-08-17T09:42:15Z</time>
      </trkpt>
      <trkpt lat="47.18155" lon="-1.16505">
        <ele>111.98</ele>
        <time>2014-08-17T09:42:25Z</time>
      </trkpt>
      <trkpt lat="47.18145" lon="-1.16501">
        <ele>109.51</ele>
        <time>2014-08-17T09:42:35Z</time>
      </trkpt>
      <trkpt lat="47.18134" lon="-1.16512">
        <ele>108.7</ele>
        <time>2014-08-17T09:42:45Z</time>
      </trkpt>
      <trkpt lat="47.18124" lon="-1.16524">
        <ele>107.4</ele>
        <time>2014-08-17T09:42:55Z</time>
      </trkpt>
      <trkpt lat="47.18113" lon="-1.16535">
        <ele>106.1</ele>
        <time>2014-08-17T09:43:05Z</time>
      </trkpt>
      <trkpt lat="47.18101" lon="-1.16543">
        <ele>106.26</ele>
        <time>2014-08-17T09:43:15Z</time>
      </trkpt>
      <trkpt lat="47.18089" lon="-1.16547">
        <ele>104.66</ele>
        <time>2014-08-17T09:43:25Z</time>
      </trkpt>
      <trkpt lat="47.18073" lon="-1.16546">
        <ele>104.78</ele>
        <time>2014-08-17T09:43:35Z</time>
      </trkpt>
      <trkpt lat="47.18058" lon="-1.16546">
        <ele>105.17</ele>
        <time>2014-08-17T09:43:45Z</time>
      </trkpt>
      <trkpt lat="47.18045" lon="-1.16542">
        <ele>105.42</ele>
        <time>2014-08-17T09:43:55Z</time>
      </trkpt>
      <trkpt lat="47.18029" lon="-1.16534">
        <ele>107.06</ele>
        <time>2014-08-17T09:44:05Z</time>
      </trkpt>
      <trkpt lat="47.18016" lon="-1.1653">
        <ele>105.8</ele>
        <time>2014-08-17T09:44:15Z</time>
      </trkpt>
      <trkpt lat="47.18005" lon="-1.1652">
        <ele>105.79</ele>
        <time>2014-08-17T09:44:25Z</time>
      </trkpt>
      <trkpt lat="47.17992" lon="-1.1651">
        <ele>107.33</ele>
        <time>2014-08-17T09:44:35Z</time>
      </trkpt>
      <trkpt lat="47.1798" lon="-1.16501">
        <ele>106.61</ele>
        <time>2014-08-17T09:44:45Z</time>
      </trkpt>
      <trkpt lat="47.17966" lon="-1.16489">
        <ele>107.08</ele>
        <time>2014-08-17T09:44:55Z</time>
      </trkpt>
      <trkpt lat="47.17959" lon="-1.16485">
        <ele>103.21</ele>
        <time>2014-08-17T09:45:05Z</time>
      </trkpt>
      <trkpt lat="47.17951" lon="-1.16479">
        <ele>103.91</ele>
        <time>2014-08-17T09:45:15Z</time>
      </trkpt>
      <trkpt lat="47.17946" lon="-1.16474">
        <ele>103.82</ele>
        <time>2014-08-17T09:45:25Z</time>
      </trkpt>
      <trkpt lat="47.17936" lon="-1.16467">
        <ele>104.83</ele>
        <time>2014-08-17T09:45:35Z</time>
      </trkpt>
      <trkpt lat="47.17934" lon="-1.16465">
        <ele>105.18</ele>
        <time>2014-08-17T09:45:45Z</time>
      </trkpt>
      <trkpt lat="47.17928" lon="-1.16459">
        <ele>103.42</ele>
        <time>2014-08-17T09:45:55Z</time>
      </trkpt>
      <trkpt lat="47.17925" lon="-1.16457">
        <ele>104.27</ele>
        <time>2014-08-17T09:46:05Z</time>
      </trkpt>
      <trkpt lat="47.17924" lon="-1.16456">
        <ele>104.95</ele>
        <time>2014-08-17T09:46:44Z</time>
      </trkpt>
      <trkpt lat="47.17917" lon="-1.16449">
        <ele>105.38</ele>
        <time>2014-08-17T09:46:54Z</time>
      </trkpt>
      <trkpt lat="47.17909" lon="-1.1644">
        <ele>104.7</ele>
        <time>2014-08-17T09:47:04Z</time>
      </trkpt>
      <trkpt lat="47.17908" lon="-1.1643">
        <ele>105.93</ele>
        <time>2014-08-17T09:47:14Z</time>
      </trkpt>
      <trkpt lat="47.1791" lon="-1.16431">
        <ele>106.59</ele>
        <time>2014-08-17T09:47:24Z</time>
      </trkpt>
      <trkpt lat="47.1791" lon="-1.16427">
        <ele>106.44</ele>
        <time>2014-08-17T09:47:34Z</time>
      </trkpt>
      <trkpt lat="47.17909" lon="-1.16419">
        <ele>107.48</ele>
        <time>2014-08-17T09:47:44Z</time>
      </trkpt>
      <trkpt lat="47.17908" lon="-1.16414">
        <ele>106.75</ele>
        <time>2014-08-17T09:47:54Z</time>
      </trkpt>
      <trkpt lat="47.17904" lon="-1.16412">
        <ele>105.39</ele>
        <time>2014-08-17T09:48:04Z</time>
      </trkpt>
      <trkpt lat="47.17903" lon="-1.16402">
        <ele>102.85</ele>
        <time>2014-08-17T09:48:14Z</time>
      </trkpt>
      <trkpt lat="47.17904" lon="-1.16401">
        <ele>104.12</ele>
        <time>2014-08-17T09:48:24Z</time>
      </trkpt>
      <trkpt lat="47.17903" lon="-1.16401">
        <ele>101.99</ele>
        <time>2014-08-17T09:48:34Z</time>
      </trkpt>
      <trkpt lat="47.17902" lon="-1.164">
        <ele>102.13</ele>
        <time>2014-08-17T09:48:49Z</time>
      </trkpt>
      <trkpt lat="47.17899" lon="-1.16389">
        <ele>103.03</ele>
        <time>2014-08-17T09:48:59Z</time>
      </trkpt>
      <trkpt lat="47.179" lon="-1.16388">
        <ele>103.32</ele>
        <time>2014-08-17T09:49:09Z</time>
      </trkpt>
      <trkpt lat="47.17897" lon="-1.16382">
        <ele>103.31</ele>
        <time>2014-08-17T09:49:19Z</time>
      </trkpt>
      <trkpt lat="47.17892" lon="-1.16376">
        <ele>104.08</ele>
        <time>2014-08-17T09:49:29Z</time>
      </trkpt>
      <trkpt lat="47.17888" lon="-1.16369">
        <ele>105.4</ele>
        <time>2014-08-17T09:49:39Z</time>
      </trkpt>
      <trkpt lat="47.17887" lon="-1.16368">
        <ele>105.68</ele>
        <time>2014-08-17T09:49:53Z</time>
      </trkpt>
      <trkpt lat="47.17876" lon="-1.16371">
        <ele>104.73</ele>
        <time>2014-08-17T09:50:03Z</time>
      </trkpt>
      <trkpt lat="47.17874" lon="-1.16372">
        <ele>106.04</ele>
        <time>2014-08-17T09:50:13Z</time>
      </trkpt>
      <trkpt lat="47.17873" lon="-1.16371">
        <ele>105.98</ele>
        <time>2014-08-17T09:50:23Z</time>
      </trkpt>
      <trkpt lat="47.17872" lon="-1.16373">
        <ele>106.21</ele>
        <time>2014-08-17T09:51:15Z</time>
      </trkpt>
      <trkpt lat="47.17865" lon="-1.16385">
        <ele>110.33</ele>
        <time>2014-08-17T09:51:25Z</time>
      </trkpt>
      <trkpt lat="47.17859" lon="-1.16401">
        <ele>111.88</ele>
        <time>2014-08-17T09:51:35Z</time>
      </trkpt>
      <trkpt lat="47.17857" lon="-1.16415">
        <ele>111.85</ele>
        <time>2014-08-17T09:51:45Z</time>
      </trkpt>
      <trkpt lat="47.17853" lon="-1.16432">
        <ele>113.18</ele>
        <time>2014-08-17T09:51:55Z</time>
      </trkpt>
      <trkpt lat="47.17849" lon="-1.16447">
        <ele>114.7</ele>
        <time>2014-08-17T09:52:05Z</time>
      </trkpt>
      <trkpt lat="47.17845" lon="-1.16459">
        <ele>113.89</ele>
        <time>2014-08-17T09:52:15Z</time>
      </trkpt>
      <trkpt lat="47.17842" lon="-1.16461">
        <ele>112.75</ele>
        <time>2014-08-17T09:52:25Z</time>
      </trkpt>
      <trkpt lat="47.17842" lon="-1.16468">
        <ele>114.73</ele>
        <time>2014-08-17T09:52:35Z</time>
      </trkpt>
      <trkpt lat="47.17841" lon="-1.16484">
        <ele>116.98</ele>
        <time>2014-08-17T09:52:45Z</time>
      </trkpt>
      <trkpt lat="47.1784" lon="-1.16499">
        <ele>119.25</ele>
        <time>2014-08-17T09:52:55Z</time>
      </trkpt>
      <trkpt lat="47.17839" lon="-1.16512">
        <ele>118.89</ele>
        <time>2014-08-17T09:53:05Z</time>
      </trkpt>
      <trkpt lat="47.1784" lon="-1.16524">
        <ele>119.11</ele>
        <time>2014-08-17T09:53:15Z</time>
      </trkpt>
      <trkpt lat="47.1784" lon="-1.16539">
        <ele>118.69</ele>
        <time>2014-08-17T09:53:25Z</time>
      </trkpt>
      <trkpt lat="47.17839" lon="-1.16553">
        <ele>120.21</ele>
        <time>2014-08-17T09:53:35Z</time>
      </trkpt>
      <trkpt lat="47.17837" lon="-1.16567">
        <ele>122.37</ele>
        <time>2014-08-17T09:53:45Z</time>
      </trkpt>
      <trkpt lat="47.17835" lon="-1.16583">
        <ele>124.42</ele>
        <time>2014-08-17T09:53:55Z</time>
      </trkpt>
      <trkpt lat="47.17833" lon="-1.16596">
        <ele>123.19</ele>
        <time>2014-08-17T09:54:05Z</time>
      </trkpt>
      <trkpt lat="47.1783" lon="-1.16608">
        <ele>124.25</ele>
        <time>2014-08-17T09:54:15Z</time>
      </trkpt>
      <trkpt lat="47.17827" lon="-1.16621">
        <ele>126.08</ele>
        <time>2014-08-17T09:54:25Z</time>
      </trkpt>
      <trkpt lat="47.17824" lon="-1.16636">
        <ele>126.35</ele>
        <time>2014-08-17T09:54:35Z</time>
      </trkpt>
      <trkpt lat="47.17823" lon="-1.16651">
        <ele>127.34</ele>
        <time>2014-08-17T09:54:45Z</time>
      </trkpt>
      <trkpt lat="47.17826" lon="-1.1666">
        <ele>127.37</ele>
        <time>2014-08-17T09:54:55Z</time>
      </trkpt>
      <trkpt lat="47.17825" lon="-1.16661">
        <ele>127</ele>
        <time>2014-08-17T09:55:05Z</time>
      </trkpt>
      <trkpt lat="47.17828" lon="-1.16662">
        <ele>128.61</ele>
        <time>2014-08-17T09:55:15Z</time>
      </trkpt>
      <trkpt lat="47.17835" lon="-1.16668">
        <ele>130.09</ele>
        <time>2014-08-17T09:55:25Z</time>
      </trkpt>
      <trkpt lat="47.17841" lon="-1.16674">
        <ele>130.97</ele>
        <time>2014-08-17T09:55:35Z</time>
      </trkpt>
      <trkpt lat="47.17851" lon="-1.16682">
        <ele>131.35</ele>
        <time>2014-08-17T09:55:45Z</time>
      </trkpt>
      <trkpt lat="47.1786" lon="-1.16691">
        <ele>131.51</ele>
        <time>2014-08-17T09:55:55Z</time>
      </trkpt>
      <trkpt lat="47.17869" lon="-1.16701">
        <ele>131.81</ele>
        <time>2014-08-17T09:56:05Z</time>
      </trkpt>
      <trkpt lat="47.17879" lon="-1.1671">
        <ele>131.82</ele>
        <time>2014-08-17T09:56:15Z</time>
      </trkpt>
      <trkpt lat="47.17889" lon="-1.16718">
        <ele>131.25</ele>
        <time>2014-08-17T09:56:25Z</time>
      </trkpt>
      <trkpt lat="47.17899" lon="-1.16729">
        <ele>132.11</ele>
        <time>2014-08-17T09:56:35Z</time>
      </trkpt>
      <trkpt lat="47.1791" lon="-1.16739">
        <ele>132.59</ele>
        <time>2014-08-17T09:56:45Z</time>
      </trkpt>
      <trkpt lat="47.17921" lon="-1.16748">
        <ele>132.69</ele>
        <time>2014-08-17T09:56:55Z</time>
      </trkpt>
      <trkpt lat="47.17933" lon="-1.16748">
        <ele>134.42</ele>
        <time>2014-08-17T09:57:05Z</time>
      </trkpt>
      <trkpt lat="47.17945" lon="-1.16743">
        <ele>134.98</ele>
        <time>2014-08-17T09:57:15Z</time>
      </trkpt>
      <trkpt lat="47.17957" lon="-1.16736">
        <ele>133.88</ele>
        <time>2014-08-17T09:57:25Z</time>
      </trkpt>
      <trkpt lat="47.17969" lon="-1.16729">
        <ele>133.82</ele>
        <time>2014-08-17T09:57:35Z</time>
      </trkpt>
      <trkpt lat="47.17982" lon="-1.16721">
        <ele>134.8</ele>
        <time>2014-08-17T09:57:45Z</time>
      </trkpt>
      <trkpt lat="47.17995" lon="-1.16713">
        <ele>135.86</ele>
        <time>2014-08-17T09:57:55Z</time>
      </trkpt>
      <trkpt lat="47.18006" lon="-1.16706">
        <ele>134.78</ele>
        <time>2014-08-17T09:58:05Z</time>
      </trkpt>
      <trkpt lat="47.18018" lon="-1.16701">
        <ele>136.07</ele>
        <time>2014-08-17T09:58:15Z</time>
      </trkpt>
      <trkpt lat="47.18033" lon="-1.16697">
        <ele>134.68</ele>
        <time>2014-08-17T09:58:25Z</time>
      </trkpt>
      <trkpt lat="47.18045" lon="-1.16692">
        <ele>131.88</ele>
        <time>2014-08-17T09:58:35Z</time>
      </trkpt>
      <trkpt lat="47.18058" lon="-1.1669">
        <ele>132.26</ele>
        <time>2014-08-17T09:58:45Z</time>
      </trkpt>
      <trkpt lat="47.18068" lon="-1.16693">
        <ele>130.54</ele>
        <time>2014-08-17T09:58:55Z</time>
      </trkpt>
      <trkpt lat="47.18066" lon="-1.16712">
        <ele>129.82</ele>
        <time>2014-08-17T09:59:05Z</time>
      </trkpt>
      <trkpt lat="47.18059" lon="-1.16727">
        <ele>128.2</ele>
        <time>2014-08-17T09:59:15Z</time>
      </trkpt>
      <trkpt lat="47.18054" lon="-1.1675">
        <ele>124.98</ele>
        <time>2014-08-17T09:59:25Z</time>
      </trkpt>
      <trkpt lat="47.18053" lon="-1.1677">
        <ele>125.68</ele>
        <time>2014-08-17T09:59:35Z</time>
      </trkpt>
      <trkpt lat="47.18051" lon="-1.16791">
        <ele>122.22</ele>
        <time>2014-08-17T09:59:45Z</time>
      </trkpt>
      <trkpt lat="47.1805" lon="-1.16807">
        <ele>121.67</ele>
        <time>2014-08-17T09:59:55Z</time>
      </trkpt>
      <trkpt lat="47.18049" lon="-1.16827">
        <ele>118.45</ele>
        <time>2014-08-17T10:00:05Z</time>
      </trkpt>
      <trkpt lat="47.1805" lon="-1.16846">
        <ele>118.19</ele>
        <time>2014-08-17T10:00:15Z</time>
      </trkpt>
      <trkpt lat="47.18051" lon="-1.16864">
        <ele>115.1</ele>
        <time>2014-08-17T10:00:25Z</time>
      </trkpt>
      <trkpt lat="47.18053" lon="-1.16882">
        <ele>113.6</ele>
        <time>2014-08-17T10:00:35Z</time>
      </trkpt>
      <trkpt lat="47.18052" lon="-1.16901">
        <ele>113.36</ele>
        <time>2014-08-17T10:00:45Z</time>
      </trkpt>
      <trkpt lat="47.18049" lon="-1.16925">
        <ele>114.33</ele>
        <time>2014-08-17T10:00:55Z</time>
      </trkpt>
      <trkpt lat="47.18045" lon="-1.16941">
        <ele>114.55</ele>
        <time>2014-08-17T10:01:05Z</time>
      </trkpt>
      <trkpt lat="47.18038" lon="-1.16962">
        <ele>112.29</ele>
        <time>2014-08-17T10:01:15Z</time>
      </trkpt>
      <trkpt lat="47.18033" lon="-1.16983">
        <ele>111.56</ele>
        <time>2014-08-17T10:01:25Z</time>
      </trkpt>
      <trkpt lat="47.18031" lon="-1.17004">
        <ele>109.16</ele>
        <time>2014-08-17T10:01:35Z</time>
      </trkpt>
      <trkpt lat="47.18031" lon="-1.17025">
        <ele>108.03</ele>
        <time>2014-08-17T10:01:45Z</time>
      </trkpt>
      <trkpt lat="47.18034" lon="-1.17046">
        <ele>108.27</ele>
        <time>2014-08-17T10:01:55Z</time>
      </trkpt>
      <trkpt lat="47.18036" lon="-1.17068">
        <ele>107.97</ele>
        <time>2014-08-17T10:02:05Z</time>
      </trkpt>
      <trkpt lat="47.18035" lon="-1.17088">
        <ele>109.91</ele>
        <time>2014-08-17T10:02:15Z</time>
      </trkpt>
      <trkpt lat="47.18032" lon="-1.17107">
        <ele>109.82</ele>
        <time>2014-08-17T10:02:25Z</time>
      </trkpt>
      <trkpt lat="47.18031" lon="-1.17127">
        <ele>110.67</ele>
        <time>2014-08-17T10:02:35Z</time>
      </trkpt>
      <trkpt lat="47.1803" lon="-1.17146">
        <ele>112.09</ele>
        <time>2014-08-17T10:02:45Z</time>
      </trkpt>
      <trkpt lat="47.18032" lon="-1.17166">
        <ele>111.12</ele>
        <time>2014-08-17T10:02:55Z</time>
      </trkpt>
      <trkpt lat="47.18034" lon="-1.17188">
        <ele>110.89</ele>
        <time>2014-08-17T10:03:05Z</time>
      </trkpt>
      <trkpt lat="47.18038" lon="-1.17207">
        <ele>113.55</ele>
        <time>2014-08-17T10:03:15Z</time>
      </trkpt>
      <trkpt lat="47.18041" lon="-1.17229">
        <ele>115.77</ele>
        <time>2014-08-17T10:03:25Z</time>
      </trkpt>
      <trkpt lat="47.18049" lon="-1.17248">
        <ele>117.18</ele>
        <time>2014-08-17T10:03:35Z</time>
      </trkpt>
      <trkpt lat="47.18058" lon="-1.17263">
        <ele>118.73</ele>
        <time>2014-08-17T10:03:45Z</time>
      </trkpt>
      <trkpt lat="47.18069" lon="-1.17275">
        <ele>120.81</ele>
        <time>2014-08-17T10:03:55Z</time>
      </trkpt>
      <trkpt lat="47.18083" lon="-1.17288">
        <ele>119.84</ele>
        <time>2014-08-17T10:04:05Z</time>
      </trkpt>
      <trkpt lat="47.18095" lon="-1.17301">
        <ele>118.19</ele>
        <time>2014-08-17T10:04:15Z</time>
      </trkpt>
      <trkpt lat="47.18096" lon="-1.17313">
        <ele>116.69</ele>
        <time>2014-08-17T10:04:25Z</time>
      </trkpt>
      <trkpt lat="47.18104" lon="-1.17308">
        <ele>115.78</ele>
        <time>2014-08-17T10:04:35Z</time>
      </trkpt>
      <trkpt lat="47.18115" lon="-1.1732">
        <ele>116.75</ele>
        <time>2014-08-17T10:04:45Z</time>
      </trkpt>
      <trkpt lat="47.18125" lon="-1.17333">
        <ele>117.75</ele>
        <time>2014-08-17T10:04:55Z</time>
      </trkpt>
      <trkpt lat="47.18136" lon="-1.1735">
        <ele>119.54</ele>
        <time>2014-08-17T10:05:05Z</time>
      </trkpt>
      <trkpt lat="47.18146" lon="-1.17365">
        <ele>118.71</ele>
        <time>2014-08-17T10:05:15Z</time>
      </trkpt>
      <trkpt lat="47.18157" lon="-1.1738">
        <ele>118.27</ele>
        <time>2014-08-17T10:05:25Z</time>
      </trkpt>
      <trkpt lat="47.18167" lon="-1.17393">
        <ele>117.9</ele>
        <time>2014-08-17T10:05:35Z</time>
      </trkpt>
      <trkpt lat="47.18178" lon="-1.17404">
        <ele>118.72</ele>
        <time>2014-08-17T10:05:45Z</time>
      </trkpt>
      <trkpt lat="47.18192" lon="-1.17417">
        <ele>119.85</ele>
        <time>2014-08-17T10:05:55Z</time>
      </trkpt>
      <trkpt lat="47.18205" lon="-1.17425">
        <ele>119.55</ele>
        <time>2014-08-17T10:06:05Z</time>
      </trkpt>
      <trkpt lat="47.18215" lon="-1.1743">
        <ele>121.86</ele>
        <time>2014-08-17T10:06:15Z</time>
      </trkpt>
      <trkpt lat="47.18225" lon="-1.17438">
        <ele>118.99</ele>
        <time>2014-08-17T10:06:25Z</time>
      </trkpt>
      <trkpt lat="47.18227" lon="-1.17455">
        <ele>118.05</ele>
        <time>2014-08-17T10:06:35Z</time>
      </trkpt>
      <trkpt lat="47.1823" lon="-1.17473">
        <ele>117.96</ele>
        <time>2014-08-17T10:06:45Z</time>
      </trkpt>
      <trkpt lat="47.18233" lon="-1.1749">
        <ele>118.11</ele>
        <time>2014-08-17T10:06:55Z</time>
      </trkpt>
      <trkpt lat="47.18236" lon="-1.17507">
        <ele>118.39</ele>
        <time>2014-08-17T10:07:05Z</time>
      </trkpt>
      <trkpt lat="47.18239" lon="-1.17526">
        <ele>119.54</ele>
        <time>2014-08-17T10:07:15Z</time>
      </trkpt>
      <trkpt lat="47.18244" lon="-1.17543">
        <ele>119.72</ele>
        <time>2014-08-17T10:07:25Z</time>
      </trkpt>
      <trkpt lat="47.18248" lon="-1.1756">
        <ele>118.6</ele>
        <time>2014-08-17T10:07:35Z</time>
      </trkpt>
      <trkpt lat="47.18252" lon="-1.17579">
        <ele>119.13</ele>
        <time>2014-08-17T10:07:45Z</time>
      </trkpt>
      <trkpt lat="47.1826" lon="-1.17594">
        <ele>119.26</ele>
        <time>2014-08-17T10:07:55Z</time>
      </trkpt>
      <trkpt lat="47.18267" lon="-1.17607">
        <ele>116.85</ele>
        <time>2014-08-17T10:08:05Z</time>
      </trkpt>
      <trkpt lat="47.18273" lon="-1.17622">
        <ele>118.07</ele>
        <time>2014-08-17T10:08:15Z</time>
      </trkpt>
      <trkpt lat="47.18279" lon="-1.17639">
        <ele>119.19</ele>
        <time>2014-08-17T10:08:25Z</time>
      </trkpt>
      <trkpt lat="47.18286" lon="-1.17655">
        <ele>119.56</ele>
        <time>2014-08-17T10:08:35Z</time>
      </trkpt>
      <trkpt lat="47.18287" lon="-1.17661">
        <ele>120.76</ele>
        <time>2014-08-17T10:08:45Z</time>
      </trkpt>
      <trkpt lat="47.18297" lon="-1.17683">
        <ele>119.84</ele>
        <time>2014-08-17T10:08:55Z</time>
      </trkpt>
      <trkpt lat="47.18304" lon="-1.17704">
        <ele>122.04</ele>
        <time>2014-08-17T10:09:05Z</time>
      </trkpt>
      <trkpt lat="47.1831" lon="-1.17723">
        <ele>121.9</ele>
        <time>2014-08-17T10:09:15Z</time>
      </trkpt>
      <trkpt lat="47.18318" lon="-1.17737">
        <ele>121.69</ele>
        <time>2014-08-17T10:09:25Z</time>
      </trkpt>
      <trkpt lat="47.18316" lon="-1.17757">
        <ele>121.89</ele>
        <time>2014-08-17T10:09:35Z</time>
      </trkpt>
      <trkpt lat="47.18313" lon="-1.17776">
        <ele>121.62</ele>
        <time>2014-08-17T10:09:45Z</time>
      </trkpt>
      <trkpt lat="47.18312" lon="-1.17794">
        <ele>123.22</ele>
        <time>2014-08-17T10:09:55Z</time>
      </trkpt>
      <trkpt lat="47.18312" lon="-1.17813">
        <ele>119.3</ele>
        <time>2014-08-17T10:10:05Z</time>
      </trkpt>
      <trkpt lat="47.18307" lon="-1.17836">
        <ele>118.24</ele>
        <time>2014-08-17T10:10:15Z</time>
      </trkpt>
      <trkpt lat="47.18305" lon="-1.17856">
        <ele>119.37</ele>
        <time>2014-08-17T10:10:25Z</time>
      </trkpt>
      <trkpt lat="47.18309" lon="-1.17874">
        <ele>120.33</ele>
        <time>2014-08-17T10:10:35Z</time>
      </trkpt>
      <trkpt lat="47.18305" lon="-1.17893">
        <ele>122.14</ele>
        <time>2014-08-17T10:10:45Z</time>
      </trkpt>
      <trkpt lat="47.18302" lon="-1.17913">
        <ele>119.25</ele>
        <time>2014-08-17T10:10:55Z</time>
      </trkpt>
      <trkpt lat="47.18298" lon="-1.17931">
        <ele>118.1</ele>
        <time>2014-08-17T10:11:05Z</time>
      </trkpt>
      <trkpt lat="47.18293" lon="-1.17949">
        <ele>118.78</ele>
        <time>2014-08-17T10:11:15Z</time>
      </trkpt>
      <trkpt lat="47.1829" lon="-1.17963">
        <ele>119.69</ele>
        <time>2014-08-17T10:11:25Z</time>
      </trkpt>
      <trkpt lat="47.18283" lon="-1.17978">
        <ele>121.19</ele>
        <time>2014-08-17T10:11:35Z</time>
      </trkpt>
      <trkpt lat="47.18278" lon="-1.17994">
        <ele>121.25</ele>
        <time>2014-08-17T10:11:45Z</time>
      </trkpt>
      <trkpt lat="47.18274" lon="-1.18014">
        <ele>121.4</ele>
        <time>2014-08-17T10:11:55Z</time>
      </trkpt>
      <trkpt lat="47.18278" lon="-1.18024">
        <ele>122.45</ele>
        <time>2014-08-17T10:12:05Z</time>
      </trkpt>
      <trkpt lat="47.18273" lon="-1.18041">
        <ele>122.73</ele>
        <time>2014-08-17T10:12:15Z</time>
      </trkpt>
      <trkpt lat="47.18271" lon="-1.18058">
        <ele>123.52</ele>
        <time>2014-08-17T10:12:25Z</time>
      </trkpt>
      <trkpt lat="47.18272" lon="-1.18074">
        <ele>125.55</ele>
        <time>2014-08-17T10:12:35Z</time>
      </trkpt>
      <trkpt lat="47.18278" lon="-1.18088">
        <ele>125.55</ele>
        <time>2014-08-17T10:12:45Z</time>
      </trkpt>
      <trkpt lat="47.1828" lon="-1.18096">
        <ele>127.5</ele>
        <time>2014-08-17T10:12:50Z</time>
      </trkpt>
    </trkseg>
  </trk>
</gpx>